sensor_id;sensor_type;location;lat;lon;timestamp;P1;durP1;ratioP1;P2;durP2;ratioP2
2762;SDS011;1389;51.490;7.338;2023-04-15T00:01:41;419.33;;;255.13;;
2762;SDS011;1389;51.490;7.338;2023-04-15T00:04:07;431.60;;;265.95;;
2762;SDS011;1389;51.490;7.338;2023-04-15T00:06:35;433.20;;;265.65;;
2762;SDS011;1389;51.490;7.338;2023-04-15T00:09:02;431.02;;;269.42;;
2762;SDS011;1389;51.490;7.338;2023-04-15T00:11:28;406.17;;;233.73;;
2762;SDS011;1389;51.490;7.338;2023-04-15T00:13:54;408.80;;;236.27;;
2762;SDS011;1389;51.490;7.338;2023-04-15T00:16:20;424.13;;;259.33;;
2762;SDS011;1389;51.490;7.338;2023-04-15T00:18:46;426.35;;;241.60;;
2762;SDS011;1389;51.490;7.338;2023-04-15T00:21:12;427.17;;;254.52;;
2762;SDS011;1389;51.490;7.338;2023-04-15T00:23:38;425.27;;;265.67;;
2762;SDS011;1389;51.490;7.338;2023-04-15T00:26:05;420.93;;;260.17;;
2762;SDS011;1389;51.490;7.338;2023-04-15T00:28:31;430.23;;;269.30;;
2762;SDS011;1389;51.490;7.338;2023-04-15T00:30:58;431.92;;;266.58;;
2762;SDS011;1389;51.490;7.338;2023-04-15T00:33:24;433.83;;;266.38;;
2762;SDS011;1389;51.490;7.338;2023-04-15T00:35:50;430.95;;;278.13;;
2762;SDS011;1389;51.490;7.338;2023-04-15T00:38:16;420.20;;;256.75;;
2762;SDS011;1389;51.490;7.338;2023-04-15T00:40:42;403.20;;;230.07;;
2762;SDS011;1389;51.490;7.338;2023-04-15T00:43:08;407.85;;;236.75;;
2762;SDS011;1389;51.490;7.338;2023-04-15T00:45:34;414.93;;;245.40;;
2762;SDS011;1389;51.490;7.338;2023-04-15T00:48:00;426.55;;;246.35;;
2762;SDS011;1389;51.490;7.338;2023-04-15T00:50:27;411.13;;;245.98;;
2762;SDS011;1389;51.490;7.338;2023-04-15T00:52:53;407.80;;;239.43;;
2762;SDS011;1389;51.490;7.338;2023-04-15T00:55:19;420.45;;;252.50;;
2762;SDS011;1389;51.490;7.338;2023-04-15T00:57:45;412.15;;;245.75;;
2762;SDS011;1389;51.490;7.338;2023-04-15T01:00:11;410.08;;;238.50;;
2762;SDS011;1389;51.490;7.338;2023-04-15T01:02:38;426.27;;;244.55;;
2762;SDS011;1389;51.490;7.338;2023-04-15T01:05:04;427.63;;;261.70;;
2762;SDS011;1389;51.490;7.338;2023-04-15T01:07:30;418.30;;;252.30;;
2762;SDS011;1389;51.490;7.338;2023-04-15T01:09:57;409.73;;;237.10;;
2762;SDS011;1389;51.490;7.338;2023-04-15T01:12:23;411.98;;;245.15;;
2762;SDS011;1389;51.490;7.338;2023-04-15T01:14:52;416.77;;;251.18;;
2762;SDS011;1389;51.490;7.338;2023-04-15T01:17:18;415.38;;;250.75;;
2762;SDS011;1389;51.490;7.338;2023-04-15T01:19:45;412.63;;;246.05;;
2762;SDS011;1389;51.490;7.338;2023-04-15T01:22:11;411.40;;;244.07;;
2762;SDS011;1389;51.490;7.338;2023-04-15T01:24:37;404.38;;;232.70;;
2762;SDS011;1389;51.490;7.338;2023-04-15T01:27:04;421.92;;;231.77;;
2762;SDS011;1389;51.490;7.338;2023-04-15T01:29:35;407.08;;;238.32;;
2762;SDS011;1389;51.490;7.338;2023-04-15T01:32:02;399.08;;;224.48;;
2762;SDS011;1389;51.490;7.338;2023-04-15T01:34:28;387.53;;;205.87;;
2762;SDS011;1389;51.490;7.338;2023-04-15T01:36:54;399.38;;;221.10;;
2762;SDS011;1389;51.490;7.338;2023-04-15T01:39:21;390.07;;;211.27;;
2762;SDS011;1389;51.490;7.338;2023-04-15T01:41:47;402.90;;;215.85;;
2762;SDS011;1389;51.490;7.338;2023-04-15T01:44:13;388.33;;;208.70;;
2762;SDS011;1389;51.490;7.338;2023-04-15T01:46:39;390.65;;;208.98;;
2762;SDS011;1389;51.490;7.338;2023-04-15T01:49:06;397.05;;;214.65;;
2762;SDS011;1389;51.490;7.338;2023-04-15T01:51:32;397.88;;;223.30;;
2762;SDS011;1389;51.490;7.338;2023-04-15T01:53:58;395.63;;;216.93;;
2762;SDS011;1389;51.490;7.338;2023-04-15T01:56:24;406.60;;;218.07;;
2762;SDS011;1389;51.490;7.338;2023-04-15T01:58:51;404.85;;;225.25;;
2762;SDS011;1389;51.490;7.338;2023-04-15T02:01:17;396.10;;;219.77;;
2762;SDS011;1389;51.490;7.338;2023-04-15T02:03:46;402.58;;;227.73;;
2762;SDS011;1389;51.490;7.338;2023-04-15T02:06:12;405.35;;;236.50;;
2762;SDS011;1389;51.490;7.338;2023-04-15T02:08:38;419.52;;;257.83;;
2762;SDS011;1389;51.490;7.338;2023-04-15T02:11:04;428.75;;;253.35;;
2762;SDS011;1389;51.490;7.338;2023-04-15T02:13:30;427.98;;;269.20;;
2762;SDS011;1389;51.490;7.338;2023-04-15T02:15:56;423.63;;;263.45;;
2762;SDS011;1389;51.490;7.338;2023-04-15T02:18:23;431.00;;;262.98;;
2762;SDS011;1389;51.490;7.338;2023-04-15T02:20:50;429.33;;;272.52;;
2762;SDS011;1389;51.490;7.338;2023-04-15T02:23:16;421.83;;;261.90;;
2762;SDS011;1389;51.490;7.338;2023-04-15T02:25:43;426.40;;;252.32;;
2762;SDS011;1389;51.490;7.338;2023-04-15T02:28:09;429.10;;;267.73;;
2762;SDS011;1389;51.490;7.338;2023-04-15T02:30:35;424.30;;;250.93;;
2762;SDS011;1389;51.490;7.338;2023-04-15T02:33:01;437.45;;;281.63;;
2762;SDS011;1389;51.490;7.338;2023-04-15T02:35:27;412.57;;;247.50;;
2762;SDS011;1389;51.490;7.338;2023-04-15T02:37:54;443.40;;;293.50;;
2762;SDS011;1389;51.490;7.338;2023-04-15T02:40:20;443.23;;;294.42;;
2762;SDS011;1389;51.490;7.338;2023-04-15T02:42:46;447.30;;;295.77;;
2762;SDS011;1389;51.490;7.338;2023-04-15T02:45:12;440.75;;;286.65;;
2762;SDS011;1389;51.490;7.338;2023-04-15T02:47:38;419.20;;;257.50;;
2762;SDS011;1389;51.490;7.338;2023-04-15T02:50:06;440.13;;;290.63;;
2762;SDS011;1389;51.490;7.338;2023-04-15T02:52:34;458.65;;;293.10;;
2762;SDS011;1389;51.490;7.338;2023-04-15T02:55:00;441.03;;;290.80;;
2762;SDS011;1389;51.490;7.338;2023-04-15T02:57:27;437.98;;;284.25;;
2762;SDS011;1389;51.490;7.338;2023-04-15T02:59:53;428.73;;;270.73;;
2762;SDS011;1389;51.490;7.338;2023-04-15T03:02:20;425.95;;;268.42;;
2762;SDS011;1389;51.490;7.338;2023-04-15T03:04:46;438.47;;;287.60;;
2762;SDS011;1389;51.490;7.338;2023-04-15T03:07:12;445.33;;;291.30;;
2762;SDS011;1389;51.490;7.338;2023-04-15T03:09:38;436.67;;;287.30;;
2762;SDS011;1389;51.490;7.338;2023-04-15T03:12:05;438.27;;;288.67;;
2762;SDS011;1389;51.490;7.338;2023-04-15T03:14:32;435.27;;;277.60;;
2762;SDS011;1389;51.490;7.338;2023-04-15T03:16:58;435.13;;;273.52;;
2762;SDS011;1389;51.490;7.338;2023-04-15T03:19:24;427.10;;;256.58;;
2762;SDS011;1389;51.490;7.338;2023-04-15T03:21:50;441.65;;;288.15;;
2762;SDS011;1389;51.490;7.338;2023-04-15T03:24:16;438.77;;;284.30;;
2762;SDS011;1389;51.490;7.338;2023-04-15T03:26:42;435.40;;;282.60;;
2762;SDS011;1389;51.490;7.338;2023-04-15T03:29:09;416.20;;;250.38;;
2762;SDS011;1389;51.490;7.338;2023-04-15T03:31:35;417.97;;;249.57;;
2762;SDS011;1389;51.490;7.338;2023-04-15T03:34:01;405.05;;;231.80;;
2762;SDS011;1389;51.490;7.338;2023-04-15T03:36:28;409.43;;;238.60;;
2762;SDS011;1389;51.490;7.338;2023-04-15T03:38:57;428.63;;;272.93;;
2762;SDS011;1389;51.490;7.338;2023-04-15T03:41:23;431.03;;;261.50;;
2762;SDS011;1389;51.490;7.338;2023-04-15T03:43:49;412.75;;;243.13;;
2762;SDS011;1389;51.490;7.338;2023-04-15T03:46:18;405.85;;;229.35;;
2762;SDS011;1389;51.490;7.338;2023-04-15T03:48:45;434.45;;;277.63;;
2762;SDS011;1389;51.490;7.338;2023-04-15T03:51:11;417.20;;;253.73;;
2762;SDS011;1389;51.490;7.338;2023-04-15T03:53:37;411.42;;;245.23;;
2762;SDS011;1389;51.490;7.338;2023-04-15T03:56:04;426.48;;;257.35;;
2762;SDS011;1389;51.490;7.338;2023-04-15T03:58:30;410.70;;;237.15;;
2762;SDS011;1389;51.490;7.338;2023-04-15T04:00:56;415.02;;;247.90;;
2762;SDS011;1389;51.490;7.338;2023-04-15T04:03:22;425.73;;;260.90;;
2762;SDS011;1389;51.490;7.338;2023-04-15T04:05:48;409.48;;;234.55;;
2762;SDS011;1389;51.490;7.338;2023-04-15T04:08:15;408.05;;;235.25;;
2762;SDS011;1389;51.490;7.338;2023-04-15T04:10:41;406.98;;;238.43;;
2762;SDS011;1389;51.490;7.338;2023-04-15T04:13:17;406.80;;;232.93;;
2762;SDS011;1389;51.490;7.338;2023-04-15T04:15:53;407.45;;;239.05;;
2762;SDS011;1389;51.490;7.338;2023-04-15T04:18:19;417.95;;;247.80;;
2762;SDS011;1389;51.490;7.338;2023-04-15T04:20:45;397.07;;;223.80;;
2762;SDS011;1389;51.490;7.338;2023-04-15T04:23:11;404.77;;;233.25;;
2762;SDS011;1389;51.490;7.338;2023-04-15T04:25:37;390.58;;;204.77;;
2762;SDS011;1389;51.490;7.338;2023-04-15T04:28:03;402.77;;;232.23;;
2762;SDS011;1389;51.490;7.338;2023-04-15T04:30:34;397.98;;;217.95;;
2762;SDS011;1389;51.490;7.338;2023-04-15T04:33:01;387.70;;;206.80;;
2762;SDS011;1389;51.490;7.338;2023-04-15T04:35:27;390.15;;;210.25;;
2762;SDS011;1389;51.490;7.338;2023-04-15T04:37:53;415.45;;;239.35;;
2762;SDS011;1389;51.490;7.338;2023-04-15T04:40:19;405.23;;;232.30;;
2762;SDS011;1389;51.490;7.338;2023-04-15T04:42:45;410.63;;;241.25;;
2762;SDS011;1389;51.490;7.338;2023-04-15T04:45:11;408.25;;;235.70;;
2762;SDS011;1389;51.490;7.338;2023-04-15T04:47:37;411.52;;;242.98;;
2762;SDS011;1389;51.490;7.338;2023-04-15T04:50:03;427.85;;;270.35;;
2762;SDS011;1389;51.490;7.338;2023-04-15T04:52:31;415.35;;;250.20;;
2762;SDS011;1389;51.490;7.338;2023-04-15T04:54:57;433.02;;;276.00;;
2762;SDS011;1389;51.490;7.338;2023-04-15T04:57:23;436.52;;;263.65;;
2762;SDS011;1389;51.490;7.338;2023-04-15T04:59:49;421.75;;;258.27;;
2762;SDS011;1389;51.490;7.338;2023-04-15T05:02:15;448.42;;;291.73;;
2762;SDS011;1389;51.490;7.338;2023-04-15T05:04:41;441.08;;;275.27;;
2762;SDS011;1389;51.490;7.338;2023-04-15T05:07:07;437.00;;;283.27;;
2762;SDS011;1389;51.490;7.338;2023-04-15T05:09:33;439.70;;;286.33;;
2762;SDS011;1389;51.490;7.338;2023-04-15T05:12:01;435.95;;;276.33;;
2762;SDS011;1389;51.490;7.338;2023-04-15T05:14:30;442.17;;;288.98;;
2762;SDS011;1389;51.490;7.338;2023-04-15T05:16:56;452.53;;;295.33;;
2762;SDS011;1389;51.490;7.338;2023-04-15T05:19:22;440.48;;;288.15;;
2762;SDS011;1389;51.490;7.338;2023-04-15T05:21:48;431.27;;;269.63;;
2762;SDS011;1389;51.490;7.338;2023-04-15T05:24:14;427.20;;;265.30;;
2762;SDS011;1389;51.490;7.338;2023-04-15T05:26:41;428.80;;;264.73;;
2762;SDS011;1389;51.490;7.338;2023-04-15T05:29:07;425.10;;;266.90;;
2762;SDS011;1389;51.490;7.338;2023-04-15T05:31:33;431.20;;;273.08;;
2762;SDS011;1389;51.490;7.338;2023-04-15T05:34:00;418.23;;;252.75;;
2762;SDS011;1389;51.490;7.338;2023-04-15T05:36:26;426.13;;;263.85;;
2762;SDS011;1389;51.490;7.338;2023-04-15T05:38:53;418.38;;;249.18;;
2762;SDS011;1389;51.490;7.338;2023-04-15T05:41:19;418.75;;;245.07;;
2762;SDS011;1389;51.490;7.338;2023-04-15T05:43:45;409.30;;;242.20;;
2762;SDS011;1389;51.490;7.338;2023-04-15T05:46:11;405.05;;;234.02;;
2762;SDS011;1389;51.490;7.338;2023-04-15T05:48:37;417.13;;;251.77;;
2762;SDS011;1389;51.490;7.338;2023-04-15T05:51:03;409.23;;;235.30;;
2762;SDS011;1389;51.490;7.338;2023-04-15T05:53:30;405.05;;;227.68;;
2762;SDS011;1389;51.490;7.338;2023-04-15T05:55:56;405.40;;;236.83;;
2762;SDS011;1389;51.490;7.338;2023-04-15T05:58:22;408.42;;;237.10;;
2762;SDS011;1389;51.490;7.338;2023-04-15T06:00:48;388.42;;;201.35;;
2762;SDS011;1389;51.490;7.338;2023-04-15T06:03:14;391.27;;;208.65;;
2762;SDS011;1389;51.490;7.338;2023-04-15T06:05:41;382.02;;;198.85;;
2762;SDS011;1389;51.490;7.338;2023-04-15T06:08:10;380.30;;;195.27;;
2762;SDS011;1389;51.490;7.338;2023-04-15T06:10:37;381.48;;;201.00;;
2762;SDS011;1389;51.490;7.338;2023-04-15T06:13:03;375.53;;;188.27;;
2762;SDS011;1389;51.490;7.338;2023-04-15T06:15:29;366.95;;;172.15;;
2762;SDS011;1389;51.490;7.338;2023-04-15T06:17:55;372.63;;;174.43;;
2762;SDS011;1389;51.490;7.338;2023-04-15T06:20:22;370.30;;;170.75;;
2762;SDS011;1389;51.490;7.338;2023-04-15T06:22:48;370.65;;;180.57;;
2762;SDS011;1389;51.490;7.338;2023-04-15T06:25:14;370.35;;;175.32;;
2762;SDS011;1389;51.490;7.338;2023-04-15T06:27:40;367.17;;;173.77;;
2762;SDS011;1389;51.490;7.338;2023-04-15T06:30:06;368.90;;;178.07;;
2762;SDS011;1389;51.490;7.338;2023-04-15T06:32:33;359.00;;;162.83;;
2762;SDS011;1389;51.490;7.338;2023-04-15T06:34:59;354.95;;;157.02;;
2762;SDS011;1389;51.490;7.338;2023-04-15T06:37:25;363.67;;;171.98;;
2762;SDS011;1389;51.490;7.338;2023-04-15T06:39:51;359.77;;;164.68;;
2762;SDS011;1389;51.490;7.338;2023-04-15T06:42:17;360.47;;;163.30;;
2762;SDS011;1389;51.490;7.338;2023-04-15T06:44:43;352.85;;;150.70;;
2762;SDS011;1389;51.490;7.338;2023-04-15T06:47:09;345.23;;;141.27;;
2762;SDS011;1389;51.490;7.338;2023-04-15T06:49:37;354.90;;;155.57;;
2762;SDS011;1389;51.490;7.338;2023-04-15T06:52:04;352.93;;;151.70;;
2762;SDS011;1389;51.490;7.338;2023-04-15T06:54:30;345.13;;;135.70;;
2762;SDS011;1389;51.490;7.338;2023-04-15T06:56:56;352.83;;;145.60;;
2762;SDS011;1389;51.490;7.338;2023-04-15T06:59:22;356.17;;;146.38;;
2762;SDS011;1389;51.490;7.338;2023-04-15T07:01:49;353.75;;;147.57;;
2762;SDS011;1389;51.490;7.338;2023-04-15T07:04:15;355.17;;;146.90;;
2762;SDS011;1389;51.490;7.338;2023-04-15T07:06:41;352.10;;;142.40;;
2762;SDS011;1389;51.490;7.338;2023-04-15T07:09:07;353.08;;;145.30;;
2762;SDS011;1389;51.490;7.338;2023-04-15T07:11:34;353.67;;;147.25;;
2762;SDS011;1389;51.490;7.338;2023-04-15T07:14:00;354.27;;;145.40;;
2762;SDS011;1389;51.490;7.338;2023-04-15T07:16:26;353.80;;;144.38;;
2762;SDS011;1389;51.490;7.338;2023-04-15T07:18:53;361.80;;;150.77;;
2762;SDS011;1389;51.490;7.338;2023-04-15T07:21:20;363.02;;;158.85;;
2762;SDS011;1389;51.490;7.338;2023-04-15T07:23:46;368.52;;;161.02;;
2762;SDS011;1389;51.490;7.338;2023-04-15T07:26:12;370.25;;;169.73;;
2762;SDS011;1389;51.490;7.338;2023-04-15T07:28:38;373.23;;;170.52;;
2762;SDS011;1389;51.490;7.338;2023-04-15T07:31:04;380.50;;;179.82;;
2762;SDS011;1389;51.490;7.338;2023-04-15T07:33:30;375.70;;;175.70;;
2762;SDS011;1389;51.490;7.338;2023-04-15T07:35:56;368.92;;;165.82;;
2762;SDS011;1389;51.490;7.338;2023-04-15T07:38:22;378.73;;;181.40;;
2762;SDS011;1389;51.490;7.338;2023-04-15T07:40:49;376.23;;;175.30;;
2762;SDS011;1389;51.490;7.338;2023-04-15T07:43:15;378.75;;;182.05;;
2762;SDS011;1389;51.490;7.338;2023-04-15T07:45:41;381.90;;;187.23;;
2762;SDS011;1389;51.490;7.338;2023-04-15T07:48:07;379.85;;;181.48;;
2762;SDS011;1389;51.490;7.338;2023-04-15T07:50:33;382.92;;;184.73;;
2762;SDS011;1389;51.490;7.338;2023-04-15T07:52:59;378.63;;;181.40;;
2762;SDS011;1389;51.490;7.338;2023-04-15T07:55:25;385.88;;;189.52;;
2762;SDS011;1389;51.490;7.338;2023-04-15T07:57:51;390.73;;;199.47;;
2762;SDS011;1389;51.490;7.338;2023-04-15T08:00:17;388.50;;;196.38;;
2762;SDS011;1389;51.490;7.338;2023-04-15T08:02:44;384.48;;;189.07;;
2762;SDS011;1389;51.490;7.338;2023-04-15T08:05:12;385.77;;;191.10;;
2762;SDS011;1389;51.490;7.338;2023-04-15T08:07:39;397.07;;;204.00;;
2762;SDS011;1389;51.490;7.338;2023-04-15T08:10:17;390.27;;;194.23;;
2762;SDS011;1389;51.490;7.338;2023-04-15T08:12:43;387.98;;;192.32;;
2762;SDS011;1389;51.490;7.338;2023-04-15T08:15:10;394.75;;;201.20;;
2762;SDS011;1389;51.490;7.338;2023-04-15T08:17:37;400.33;;;211.10;;
2762;SDS011;1389;51.490;7.338;2023-04-15T08:20:03;406.40;;;210.70;;
2762;SDS011;1389;51.490;7.338;2023-04-15T08:22:30;398.63;;;206.70;;
2762;SDS011;1389;51.490;7.338;2023-04-15T08:24:56;409.20;;;206.57;;
2762;SDS011;1389;51.490;7.338;2023-04-15T08:27:22;395.80;;;201.02;;
2762;SDS011;1389;51.490;7.338;2023-04-15T08:29:48;394.05;;;197.10;;
2762;SDS011;1389;51.490;7.338;2023-04-15T08:32:14;397.73;;;199.55;;
2762;SDS011;1389;51.490;7.338;2023-04-15T08:34:41;400.33;;;209.18;;
2762;SDS011;1389;51.490;7.338;2023-04-15T08:37:07;403.45;;;214.35;;
2762;SDS011;1389;51.490;7.338;2023-04-15T08:39:33;401.60;;;212.88;;
2762;SDS011;1389;51.490;7.338;2023-04-15T08:42:00;398.98;;;207.00;;
2762;SDS011;1389;51.490;7.338;2023-04-15T08:44:28;400.88;;;210.57;;
2762;SDS011;1389;51.490;7.338;2023-04-15T08:47:01;406.50;;;214.48;;
2762;SDS011;1389;51.490;7.338;2023-04-15T08:49:27;411.35;;;219.98;;
2762;SDS011;1389;51.490;7.338;2023-04-15T08:51:54;398.45;;;209.75;;
2762;SDS011;1389;51.490;7.338;2023-04-15T08:54:23;401.90;;;215.20;;
2762;SDS011;1389;51.490;7.338;2023-04-15T08:56:49;406.17;;;220.73;;
2762;SDS011;1389;51.490;7.338;2023-04-15T08:59:16;403.02;;;216.05;;
2762;SDS011;1389;51.490;7.338;2023-04-15T09:01:43;408.40;;;219.60;;
2762;SDS011;1389;51.490;7.338;2023-04-15T09:04:10;407.75;;;224.68;;
2762;SDS011;1389;51.490;7.338;2023-04-15T09:06:37;411.13;;;228.27;;
2762;SDS011;1389;51.490;7.338;2023-04-15T09:09:05;409.80;;;225.20;;
2762;SDS011;1389;51.490;7.338;2023-04-15T09:11:31;412.63;;;228.70;;
2762;SDS011;1389;51.490;7.338;2023-04-15T09:13:57;415.17;;;226.00;;
2762;SDS011;1389;51.490;7.338;2023-04-15T09:16:23;421.85;;;239.88;;
2762;SDS011;1389;51.490;7.338;2023-04-15T09:18:49;418.38;;;232.50;;
2762;SDS011;1389;51.490;7.338;2023-04-15T09:21:16;409.23;;;224.07;;
2762;SDS011;1389;51.490;7.338;2023-04-15T09:24:00;410.60;;;224.10;;
2762;SDS011;1389;51.490;7.338;2023-04-15T09:26:35;402.95;;;211.60;;
2762;SDS011;1389;51.490;7.338;2023-04-15T09:29:11;410.13;;;224.90;;
2762;SDS011;1389;51.490;7.338;2023-04-15T09:31:38;414.10;;;224.25;;
2762;SDS011;1389;51.490;7.338;2023-04-15T09:34:06;411.17;;;219.75;;
2762;SDS011;1389;51.490;7.338;2023-04-15T09:39:16;404.50;;;212.98;;
2762;SDS011;1389;51.490;7.338;2023-04-15T09:41:42;412.93;;;226.53;;
2762;SDS011;1389;51.490;7.338;2023-04-15T09:44:21;406.77;;;218.02;;
2762;SDS011;1389;51.490;7.338;2023-04-15T09:46:48;419.15;;;232.43;;
2762;SDS011;1389;51.490;7.338;2023-04-15T09:49:14;418.80;;;223.75;;
2762;SDS011;1389;51.490;7.338;2023-04-15T09:51:40;413.08;;;228.75;;
2762;SDS011;1389;51.490;7.338;2023-04-15T09:54:06;421.70;;;228.60;;
2762;SDS011;1389;51.490;7.338;2023-04-15T09:56:33;411.60;;;216.68;;
2762;SDS011;1389;51.490;7.338;2023-04-15T09:59:06;421.92;;;239.02;;
2762;SDS011;1389;51.490;7.338;2023-04-15T10:01:33;408.73;;;218.05;;
2762;SDS011;1389;51.490;7.338;2023-04-15T10:04:03;417.83;;;223.07;;
2762;SDS011;1389;51.490;7.338;2023-04-15T10:06:30;414.90;;;230.00;;
2762;SDS011;1389;51.490;7.338;2023-04-15T10:08:56;413.83;;;223.45;;
2762;SDS011;1389;51.490;7.338;2023-04-15T10:11:23;419.85;;;232.10;;
2762;SDS011;1389;51.490;7.338;2023-04-15T10:13:52;412.35;;;225.27;;
2762;SDS011;1389;51.490;7.338;2023-04-15T10:16:20;433.88;;;255.43;;
2762;SDS011;1389;51.490;7.338;2023-04-15T10:18:50;409.55;;;218.65;;
2762;SDS011;1389;51.490;7.338;2023-04-15T10:21:19;419.98;;;232.00;;
2762;SDS011;1389;51.490;7.338;2023-04-15T10:23:48;412.70;;;226.93;;
2762;SDS011;1389;51.490;7.338;2023-04-15T10:26:14;422.40;;;240.65;;
2762;SDS011;1389;51.490;7.338;2023-04-15T10:28:42;417.70;;;229.60;;
2762;SDS011;1389;51.490;7.338;2023-04-15T10:31:10;412.08;;;224.90;;
2762;SDS011;1389;51.490;7.338;2023-04-15T10:33:38;414.20;;;222.45;;
2762;SDS011;1389;51.490;7.338;2023-04-15T10:36:04;408.88;;;219.55;;
2762;SDS011;1389;51.490;7.338;2023-04-15T10:38:33;422.17;;;236.13;;
2762;SDS011;1389;51.490;7.338;2023-04-15T10:41:10;415.50;;;223.85;;
2762;SDS011;1389;51.490;7.338;2023-04-15T10:43:51;420.70;;;229.05;;
2762;SDS011;1389;51.490;7.338;2023-04-15T10:46:21;426.25;;;238.27;;
2762;SDS011;1389;51.490;7.338;2023-04-15T10:48:49;422.02;;;238.07;;
2762;SDS011;1389;51.490;7.338;2023-04-15T10:51:25;416.02;;;230.15;;
2762;SDS011;1389;51.490;7.338;2023-04-15T10:53:57;410.55;;;223.30;;
2762;SDS011;1389;51.490;7.338;2023-04-15T10:56:24;413.47;;;229.03;;
2762;SDS011;1389;51.490;7.338;2023-04-15T10:58:52;403.52;;;210.75;;
2762;SDS011;1389;51.490;7.338;2023-04-15T11:01:19;408.05;;;215.65;;
2762;SDS011;1389;51.490;7.338;2023-04-15T11:03:47;410.60;;;221.93;;
2762;SDS011;1389;51.490;7.338;2023-04-15T11:06:13;420.77;;;225.32;;
2762;SDS011;1389;51.490;7.338;2023-04-15T11:08:58;412.00;;;224.18;;
2762;SDS011;1389;51.490;7.338;2023-04-15T11:14:40;412.40;;;219.57;;
2762;SDS011;1389;51.490;7.338;2023-04-15T11:17:07;405.67;;;213.65;;
2762;SDS011;1389;51.490;7.338;2023-04-15T11:19:37;413.63;;;222.87;;
2762;SDS011;1389;51.490;7.338;2023-04-15T11:22:09;411.50;;;219.70;;
2762;SDS011;1389;51.490;7.338;2023-04-15T11:24:36;414.65;;;213.93;;
2762;SDS011;1389;51.490;7.338;2023-04-15T11:27:22;408.92;;;216.82;;
2762;SDS011;1389;51.490;7.338;2023-04-15T11:29:48;415.77;;;229.43;;
2762;SDS011;1389;51.490;7.338;2023-04-15T11:32:14;418.52;;;230.40;;
2762;SDS011;1389;51.490;7.338;2023-04-15T11:34:40;417.10;;;231.10;;
2762;SDS011;1389;51.490;7.338;2023-04-15T11:37:06;409.42;;;216.05;;
2762;SDS011;1389;51.490;7.338;2023-04-15T11:39:32;413.02;;;222.65;;
2762;SDS011;1389;51.490;7.338;2023-04-15T11:41:58;415.25;;;227.00;;
2762;SDS011;1389;51.490;7.338;2023-04-15T11:44:24;413.70;;;221.20;;
2762;SDS011;1389;51.490;7.338;2023-04-15T11:46:50;402.50;;;203.13;;
2762;SDS011;1389;51.490;7.338;2023-04-15T11:49:27;405.98;;;210.15;;
2762;SDS011;1389;51.490;7.338;2023-04-15T11:51:54;410.37;;;220.50;;
2762;SDS011;1389;51.490;7.338;2023-04-15T11:54:20;404.90;;;212.38;;
2762;SDS011;1389;51.490;7.338;2023-04-15T11:56:49;406.02;;;212.75;;
2762;SDS011;1389;51.490;7.338;2023-04-15T11:59:16;403.88;;;211.60;;
2762;SDS011;1389;51.490;7.338;2023-04-15T12:01:42;411.58;;;221.02;;
2762;SDS011;1389;51.490;7.338;2023-04-15T12:04:11;404.95;;;213.60;;
2762;SDS011;1389;51.490;7.338;2023-04-15T12:06:44;412.90;;;220.80;;
2762;SDS011;1389;51.490;7.338;2023-04-15T12:09:11;408.63;;;220.40;;
2762;SDS011;1389;51.490;7.338;2023-04-15T12:16:38;415.55;;;228.52;;
2762;SDS011;1389;51.490;7.338;2023-04-15T12:19:08;412.27;;;224.13;;
2762;SDS011;1389;51.490;7.338;2023-04-15T12:21:37;416.23;;;226.10;;
2762;SDS011;1389;51.490;7.338;2023-04-15T12:24:08;417.05;;;234.32;;
2762;SDS011;1389;51.490;7.338;2023-04-15T12:26:36;416.60;;;235.57;;
2762;SDS011;1389;51.490;7.338;2023-04-15T12:29:07;417.25;;;234.38;;
2762;SDS011;1389;51.490;7.338;2023-04-15T12:31:34;416.37;;;235.00;;
2762;SDS011;1389;51.490;7.338;2023-04-15T12:34:01;414.93;;;229.50;;
2762;SDS011;1389;51.490;7.338;2023-04-15T12:36:29;419.75;;;234.82;;
2762;SDS011;1389;51.490;7.338;2023-04-15T12:39:03;420.60;;;229.30;;
2762;SDS011;1389;51.490;7.338;2023-04-15T12:41:30;413.63;;;226.75;;
2762;SDS011;1389;51.490;7.338;2023-04-15T12:43:56;413.02;;;226.73;;
2762;SDS011;1389;51.490;7.338;2023-04-15T12:46:22;409.55;;;217.90;;
2762;SDS011;1389;51.490;7.338;2023-04-15T12:48:49;408.50;;;220.40;;
2762;SDS011;1389;51.490;7.338;2023-04-15T12:51:15;412.92;;;225.52;;
2762;SDS011;1389;51.490;7.338;2023-04-15T12:53:41;418.73;;;228.67;;
2762;SDS011;1389;51.490;7.338;2023-04-15T12:56:08;413.60;;;222.75;;
2762;SDS011;1389;51.490;7.338;2023-04-15T12:58:34;413.15;;;225.32;;
2762;SDS011;1389;51.490;7.338;2023-04-15T13:01:00;411.00;;;220.57;;
2762;SDS011;1389;51.490;7.338;2023-04-15T13:03:26;420.25;;;227.45;;
2762;SDS011;1389;51.490;7.338;2023-04-15T13:05:52;414.77;;;232.38;;
2762;SDS011;1389;51.490;7.338;2023-04-15T13:08:20;419.17;;;237.35;;
2762;SDS011;1389;51.490;7.338;2023-04-15T13:10:46;413.65;;;232.18;;
2762;SDS011;1389;51.490;7.338;2023-04-15T13:13:12;432.73;;;259.40;;
2762;SDS011;1389;51.490;7.338;2023-04-15T13:15:40;424.45;;;238.35;;
2762;SDS011;1389;51.490;7.338;2023-04-15T13:18:06;423.53;;;235.57;;
2762;SDS011;1389;51.490;7.338;2023-04-15T13:20:32;421.17;;;236.35;;
2762;SDS011;1389;51.490;7.338;2023-04-15T13:22:58;423.87;;;246.80;;
2762;SDS011;1389;51.490;7.338;2023-04-15T13:25:25;421.13;;;237.23;;
2762;SDS011;1389;51.490;7.338;2023-04-15T13:27:51;438.33;;;259.48;;
2762;SDS011;1389;51.490;7.338;2023-04-15T13:30:17;503.25;;;361.00;;
2762;SDS011;1389;51.490;7.338;2023-04-15T13:32:43;522.55;;;379.60;;
2762;SDS011;1389;51.490;7.338;2023-04-15T13:35:09;437.38;;;261.88;;
2762;SDS011;1389;51.490;7.338;2023-04-15T13:37:35;466.13;;;307.50;;
2762;SDS011;1389;51.490;7.338;2023-04-15T13:40:01;430.23;;;236.80;;
2762;SDS011;1389;51.490;7.338;2023-04-15T13:42:28;426.63;;;239.88;;
2762;SDS011;1389;51.490;7.338;2023-04-15T13:44:54;431.13;;;248.27;;
2762;SDS011;1389;51.490;7.338;2023-04-15T13:47:20;424.60;;;243.93;;
2762;SDS011;1389;51.490;7.338;2023-04-15T13:49:46;435.02;;;241.88;;
2762;SDS011;1389;51.490;7.338;2023-04-15T13:52:12;422.03;;;240.67;;
2762;SDS011;1389;51.490;7.338;2023-04-15T13:54:38;432.27;;;243.85;;
2762;SDS011;1389;51.490;7.338;2023-04-15T13:57:05;431.40;;;246.73;;
2762;SDS011;1389;51.490;7.338;2023-04-15T13:59:34;453.73;;;289.00;;
2762;SDS011;1389;51.490;7.338;2023-04-15T14:02:00;423.27;;;239.50;;
2762;SDS011;1389;51.490;7.338;2023-04-15T14:04:26;421.65;;;240.77;;
2762;SDS011;1389;51.490;7.338;2023-04-15T14:06:52;420.30;;;239.57;;
2762;SDS011;1389;51.490;7.338;2023-04-15T14:09:18;421.83;;;237.98;;
2762;SDS011;1389;51.490;7.338;2023-04-15T14:11:46;424.13;;;245.18;;
2762;SDS011;1389;51.490;7.338;2023-04-15T14:14:12;427.93;;;248.37;;
2762;SDS011;1389;51.490;7.338;2023-04-15T14:16:38;427.38;;;246.55;;
2762;SDS011;1389;51.490;7.338;2023-04-15T14:19:04;427.50;;;240.57;;
2762;SDS011;1389;51.490;7.338;2023-04-15T14:21:30;422.17;;;238.65;;
2762;SDS011;1389;51.490;7.338;2023-04-15T14:23:57;427.85;;;245.63;;
2762;SDS011;1389;51.490;7.338;2023-04-15T14:26:23;439.27;;;255.90;;
2762;SDS011;1389;51.490;7.338;2023-04-15T14:28:49;417.88;;;233.98;;
2762;SDS011;1389;51.490;7.338;2023-04-15T14:31:16;422.17;;;242.05;;